createdAt,value
2022-11-08T00:02:39.312Z,991.04
2022-11-08T00:07:43.340Z,991.10
2022-11-08T00:12:47.492Z,991.19
2022-11-08T00:17:51.636Z,991.16
2022-11-08T00:22:55.809Z,991.16
2022-11-08T00:27:59.960Z,991.12
2022-11-08T00:33:04.135Z,991.08
2022-11-08T00:38:08.284Z,991.08
2022-11-08T00:43:12.437Z,991.10
2022-11-08T00:48:17.020Z,991.16
2022-11-08T00:53:20.769Z,991.36
2022-11-08T00:58:27.468Z,991.51
2022-11-08T01:03:29.152Z,991.55
2022-11-08T01:08:33.414Z,991.80
2022-11-08T01:13:37.431Z,991.89
2022-11-08T01:18:41.563Z,992.00
2022-11-08T01:23:45.706Z,991.98
2022-11-08T01:28:49.891Z,991.97
2022-11-08T01:33:54.038Z,991.87
2022-11-08T01:38:58.234Z,991.77
2022-11-08T01:44:02.345Z,991.69
2022-11-08T01:49:06.536Z,991.57
2022-11-08T01:54:10.696Z,991.59
2022-11-08T01:59:14.876Z,991.57
2022-11-08T02:04:19.013Z,991.60
2022-11-08T02:09:23.176Z,991.68
2022-11-08T02:14:27.347Z,991.80
2022-11-08T02:19:31.490Z,991.78
2022-11-08T02:24:35.680Z,991.72
2022-11-08T02:29:39.845Z,991.64
2022-11-08T02:34:43.980Z,991.64
2022-11-08T02:39:48.140Z,991.83
2022-11-08T02:44:52.328Z,992.06
2022-11-08T02:49:56.478Z,992.20
2022-11-08T02:55:00.765Z,992.30
2022-11-08T03:00:04.850Z,992.38
2022-11-08T03:05:08.948Z,992.34
2022-11-08T03:10:13.097Z,992.21
2022-11-08T03:15:17.263Z,992.08
2022-11-08T03:20:21.446Z,991.98
2022-11-08T03:25:25.568Z,991.86
2022-11-08T03:30:29.727Z,991.68
2022-11-08T03:35:33.926Z,991.40
2022-11-08T03:40:38.077Z,991.20
2022-11-08T03:45:42.221Z,991.06
2022-11-08T03:50:46.370Z,990.99
2022-11-08T03:55:50.613Z,990.87
2022-11-08T04:00:54.835Z,990.76
2022-11-08T04:05:58.887Z,990.70
2022-11-08T04:11:03.025Z,990.64
2022-11-08T04:16:07.212Z,990.56
2022-11-08T04:21:11.350Z,990.58
2022-11-08T04:26:15.502Z,990.45
2022-11-08T04:31:19.684Z,990.45
2022-11-08T04:36:23.844Z,990.29
2022-11-08T04:41:27.991Z,990.23
2022-11-08T04:46:32.148Z,990.21
2022-11-08T04:51:36.320Z,990.06
2022-11-08T04:56:40.512Z,989.87
2022-11-08T05:01:44.794Z,989.71
2022-11-08T05:06:48.809Z,989.68
2022-11-08T05:11:52.956Z,989.64
2022-11-08T05:16:55.233Z,989.71
2022-11-08T05:21:59.418Z,989.59
2022-11-08T05:27:03.560Z,989.58
2022-11-08T05:32:07.679Z,989.69
2022-11-08T05:37:11.866Z,989.86
2022-11-08T05:42:16.022Z,990.04
2022-11-08T05:47:20.217Z,990.03
2022-11-08T05:52:24.382Z,990.04
2022-11-08T05:57:28.533Z,990.12
2022-11-08T06:02:32.878Z,990.28
2022-11-08T06:07:36.814Z,990.41
2022-11-08T06:12:41.053Z,990.51
2022-11-08T06:17:45.166Z,990.80
2022-11-08T06:27:53.511Z,991.23
2022-11-08T06:32:57.642Z,991.34
2022-11-08T06:38:04.612Z,991.66
2022-11-08T06:43:05.987Z,991.89
2022-11-08T06:48:10.112Z,992.09
2022-11-08T06:53:14.319Z,992.38
2022-11-08T06:58:18.438Z,992.45
2022-11-08T07:03:22.625Z,992.63
2022-11-08T07:08:26.783Z,992.75
2022-11-08T07:13:30.920Z,992.81
2022-11-08T07:18:35.168Z,993.03
2022-11-08T07:23:39.258Z,993.45
2022-11-08T07:28:43.405Z,993.55
2022-11-08T07:33:47.576Z,993.41
2022-11-08T07:38:51.724Z,993.67
2022-11-08T07:43:55.921Z,993.60
2022-11-08T07:49:00.083Z,993.71
2022-11-08T07:54:04.244Z,993.72
2022-11-08T07:59:08.384Z,993.75
2022-11-08T08:04:12.538Z,993.47
2022-11-08T08:09:16.720Z,993.51
2022-11-08T08:14:20.862Z,993.59
2022-11-08T08:19:25.017Z,993.62
2022-11-08T08:24:29.160Z,993.75
2022-11-08T08:29:33.355Z,993.95
2022-11-08T08:34:37.522Z,994.02
2022-11-08T08:39:41.663Z,993.99
2022-11-08T08:44:45.813Z,993.85
2022-11-08T08:49:49.988Z,993.84
2022-11-08T08:54:54.170Z,993.94
2022-11-08T09:05:02.481Z,993.84
2022-11-08T09:10:06.642Z,993.89
2022-11-08T09:15:10.789Z,993.89
2022-11-08T09:20:14.965Z,994.04
2022-11-08T09:25:19.117Z,994.01
2022-11-08T09:30:23.372Z,994.34
2022-11-08T09:35:38.432Z,994.36
2022-11-08T09:40:31.599Z,994.65
2022-11-08T09:45:35.751Z,994.52
2022-11-08T09:50:39.911Z,994.62
2022-11-08T09:55:44.051Z,994.53
2022-11-08T10:00:48.211Z,994.78
2022-11-08T10:05:52.410Z,994.55
2022-11-08T10:10:56.552Z,994.30
2022-11-08T10:16:00.708Z,994.33
2022-11-08T10:21:04.869Z,994.13
2022-11-08T10:26:09.014Z,994.35
2022-11-08T10:31:13.182Z,994.19
2022-11-08T10:36:17.359Z,994.09
2022-11-08T10:41:21.503Z,993.98
2022-11-08T10:46:23.776Z,993.89
2022-11-08T10:51:27.921Z,993.89
2022-11-08T10:56:35.545Z,993.83
2022-11-08T11:01:36.305Z,993.97
2022-11-08T11:06:40.544Z,994.13
2022-11-08T11:11:44.583Z,994.14
2022-11-08T11:16:46.838Z,993.96
2022-11-08T11:21:50.996Z,993.80
2022-11-08T11:26:55.156Z,993.54
2022-11-08T11:31:59.320Z,993.62
2022-11-08T11:37:03.484Z,993.50
2022-11-08T11:42:31.203Z,993.60
2022-11-08T11:47:11.785Z,993.39
2022-11-08T11:52:15.968Z,993.46
2022-11-08T11:57:20.104Z,993.57
2022-11-08T12:02:24.318Z,993.66
2022-11-08T12:07:28.464Z,993.60
2022-11-08T12:12:32.573Z,993.51
2022-11-08T12:17:36.740Z,993.40
2022-11-08T12:22:40.902Z,993.50
2022-11-08T12:27:45.064Z,993.71
2022-11-08T12:32:49.275Z,993.49
2022-11-08T12:37:53.399Z,993.69
2022-11-08T12:42:57.572Z,993.47
2022-11-08T12:48:01.724Z,993.80
2022-11-08T12:53:05.880Z,993.95
2022-11-08T12:58:10.005Z,993.95
2022-11-08T13:03:14.223Z,993.96
2022-11-08T13:08:18.626Z,993.90
2022-11-08T13:13:22.490Z,993.72
2022-11-08T13:18:26.656Z,993.94
2022-11-08T13:23:30.838Z,993.88
2022-11-08T13:28:35.010Z,993.73
2022-11-08T13:33:39.171Z,993.59
2022-11-08T13:38:43.303Z,993.16
2022-11-08T13:43:47.450Z,993.09
2022-11-08T13:48:51.617Z,992.97
2022-11-08T13:53:55.781Z,992.99
2022-11-08T13:58:59.953Z,992.82
2022-11-08T14:04:04.134Z,992.90
2022-11-08T14:09:08.276Z,992.86
2022-11-08T14:14:12.435Z,993.06
2022-11-08T14:19:16.597Z,992.95
2022-11-08T14:24:20.759Z,992.66
2022-11-08T14:29:24.892Z,992.71
2022-11-08T14:34:29.089Z,992.63
2022-11-08T14:39:33.252Z,992.75
2022-11-08T14:44:37.400Z,992.75
2022-11-08T14:49:41.549Z,992.60
2022-11-08T14:54:45.695Z,992.61
2022-11-08T14:59:53.961Z,992.49
2022-11-08T15:04:54.054Z,992.52
2022-11-08T15:09:58.186Z,992.56
2022-11-08T15:15:02.368Z,992.50
2022-11-08T15:20:06.484Z,992.66
2022-11-08T15:25:10.711Z,992.40
2022-11-08T15:30:14.832Z,992.32
2022-11-08T15:35:19.023Z,992.31
2022-11-08T15:40:23.143Z,992.23
2022-11-08T15:45:27.326Z,992.15
2022-11-08T15:50:31.484Z,992.06
2022-11-08T15:55:35.645Z,991.97
2022-11-08T16:00:39.785Z,992.15
2022-11-08T16:05:43.938Z,992.13
2022-11-08T16:10:48.099Z,991.86
2022-11-08T16:15:52.309Z,991.99
2022-11-08T16:20:56.430Z,991.82
2022-11-08T16:26:00.572Z,991.56
2022-11-08T16:31:04.744Z,991.63
2022-11-08T16:36:08.891Z,991.70
2022-11-08T16:41:13.070Z,991.69
2022-11-08T16:46:15.353Z,991.76
2022-11-08T16:51:19.488Z,991.85
2022-11-08T16:56:23.635Z,991.81
2022-11-08T17:01:27.842Z,991.82
2022-11-08T17:06:32.033Z,991.94
2022-11-08T17:11:36.159Z,991.73
2022-11-08T17:16:40.283Z,991.83
2022-11-08T17:21:45.739Z,991.88
2022-11-08T17:26:48.603Z,991.94
2022-11-08T17:31:52.788Z,992.11
2022-11-08T17:36:56.935Z,991.89
2022-11-08T17:42:01.084Z,991.65
2022-11-08T17:47:05.238Z,991.81
2022-11-08T17:52:09.398Z,991.62
2022-11-08T17:57:13.551Z,991.65
2022-11-08T18:02:17.747Z,991.60
2022-11-08T18:07:21.976Z,991.61
2022-11-08T18:12:26.022Z,991.67
2022-11-08T18:17:30.205Z,991.62
2022-11-08T18:22:34.352Z,991.60
2022-11-08T18:27:38.509Z,991.55
2022-11-08T18:32:42.716Z,991.51
2022-11-08T18:37:46.849Z,991.56
2022-11-08T18:42:50.989Z,991.46
2022-11-08T18:47:55.174Z,991.53
2022-11-08T18:53:03.259Z,991.52
2022-11-08T18:58:03.496Z,991.41
2022-11-08T19:03:07.641Z,991.48
2022-11-08T19:08:11.839Z,991.45
2022-11-08T19:13:16.347Z,991.41
2022-11-08T19:18:20.153Z,991.45
2022-11-08T19:23:24.276Z,991.16
2022-11-08T19:28:32.631Z,991.49
2022-11-08T19:33:32.633Z,991.36
2022-11-08T19:38:36.758Z,991.47
2022-11-08T19:43:40.928Z,991.60
2022-11-08T19:48:45.065Z,991.52
2022-11-08T19:53:49.237Z,991.51
2022-11-08T19:58:53.391Z,991.52
2022-11-08T20:03:57.543Z,991.58
2022-11-08T20:09:01.729Z,991.53
2022-11-08T20:14:05.882Z,991.56
2022-11-08T20:19:10.029Z,991.64
2022-11-08T20:24:14.204Z,991.56
2022-11-08T20:29:18.397Z,991.73
2022-11-08T20:34:22.514Z,991.77
2022-11-08T20:39:26.695Z,991.70
2022-11-08T20:44:30.835Z,991.69
2022-11-08T20:49:35.000Z,991.80
2022-11-08T20:54:43.758Z,991.82
2022-11-08T20:59:43.300Z,991.50
2022-11-08T21:04:47.453Z,991.78
2022-11-08T21:09:59.025Z,991.61
2022-11-08T21:14:55.776Z,991.51
2022-11-08T21:19:59.955Z,991.49
2022-11-08T21:25:04.121Z,991.41
2022-11-08T21:30:08.270Z,991.31
2022-11-08T21:35:12.443Z,991.27
2022-11-08T21:40:16.573Z,991.36
2022-11-08T21:45:20.733Z,991.43
2022-11-08T21:50:24.918Z,991.64
2022-11-08T21:55:29.087Z,991.58
2022-11-08T22:00:33.246Z,991.66
2022-11-08T22:05:37.406Z,991.50
2022-11-08T22:10:41.554Z,991.50
2022-11-08T22:15:43.809Z,991.71
2022-11-08T22:20:47.977Z,991.44
2022-11-08T22:25:52.137Z,991.45
2022-11-08T22:30:56.275Z,991.47
2022-11-08T22:36:00.497Z,991.46
2022-11-08T22:41:04.597Z,991.35
2022-11-08T22:46:08.761Z,991.46
2022-11-08T22:51:12.924Z,991.39
2022-11-08T22:56:17.120Z,991.38
2022-11-08T23:01:21.264Z,991.52
2022-11-08T23:06:25.412Z,991.32
2022-11-08T23:11:29.562Z,991.32
2022-11-08T23:16:33.744Z,991.32
2022-11-08T23:21:37.916Z,991.36
2022-11-08T23:26:42.047Z,991.37
2022-11-08T23:31:46.231Z,991.37
2022-11-08T23:36:50.365Z,991.43
2022-11-08T23:41:54.522Z,991.36
2022-11-08T23:46:58.691Z,991.37
2022-11-08T23:52:02.841Z,991.22
2022-11-08T23:57:06.991Z,991.20
